Terminal Aerodrome Forecast
Issued by NWS Salt Lake City, UT

Current Version | Previous Version | Text Only | Print | Product List | Glossary On
Versions: 1 2 3 4 5 6 7 8 9 10 11 12 13 14 15 16 17 18 19 20 21
000
FTUS45 KSLC 231730
TAFCDC
TAF
KCDC 231730Z 2318/2418 22009KT P6SM SCT200
     FM231900 22010G16KT P6SM SCT200
     FM240100 21008KT P6SM SCT200
     FM240300 VRB04KT P6SM SKC=

USA.gov is the U.S. government's official web portal to all federal, state and local government web resources and services.